Time;durP1;ratioP1;P1;durP2;ratioP2;P2;SDS_P1;SDS_P2;PMS_P1;PMS_P2;Temp;Humidity;BMP_temperature;BMP_pressure;BME280_temperature;BME280_humidity;BME280_pressure;Samples;Min_cycle;Max_cycle;Signal;HPM_P1;HPM_P2
2021/04/25 00:01:55;;;;;;;5.60;2.50;;;8.40;55.30;;;;;;5074462;28;20048;-70
2021/04/25 00:04:20;;;;;;;6.53;2.60;;;8.40;55.40;;;;;;5079992;28;20541;-70
2021/04/25 00:06:46;;;;;;;5.28;2.05;;;8.40;55.40;;;;;;5080377;28;20017;-70
2021/04/25 00:09:13;;;;;;;6.90;3.03;;;8.40;55.30;;;;;;5061019;28;20036;-70
2021/04/25 00:11:39;;;;;;;6.95;2.95;;;8.40;56.00;;;;;;5094631;28;20373;-70
2021/04/25 00:14:05;;;;;;;5.80;2.78;;;8.40;55.50;;;;;;5086725;28;20016;-70
2021/04/25 00:16:31;;;;;;;5.68;2.60;;;8.40;55.70;;;;;;5094517;28;20028;-70
2021/04/25 00:19:00;;;;;;;5.30;2.65;;;8.50;55.70;;;;;;5083086;28;20020;-72
2021/04/25 00:21:26;;;;;;;4.18;2.13;;;8.50;55.70;;;;;;5073685;28;20024;-71
2021/04/25 00:23:51;;;;;;;6.30;2.78;;;8.50;55.70;;;;;;5075417;28;20020;-71
2021/04/25 00:26:17;;;;;;;5.13;2.35;;;8.40;55.80;;;;;;5087923;28;20469;-70
2021/04/25 00:28:43;;;;;;;5.82;2.28;;;8.50;55.80;;;;;;5066938;28;20020;-71
2021/04/25 00:31:09;;;;;;;5.13;2.85;;;8.50;55.70;;;;;;5073027;28;20039;-69
2021/04/25 00:33:35;;;;;;;7.63;2.55;;;8.50;56.00;;;;;;5073103;28;20025;-69
2021/04/25 00:36:01;;;;;;;5.10;2.58;;;8.50;56.10;;;;;;5087409;28;20028;-70
2021/04/25 00:38:26;;;;;;;7.63;2.63;;;8.60;56.10;;;;;;5072780;28;20085;-70
2021/04/25 00:40:52;;;;;;;3.85;2.08;;;8.50;55.90;;;;;;5093331;28;20024;-71
2021/04/25 00:43:17;;;;;;;4.57;2.55;;;8.60;55.80;;;;;;5071900;28;20025;-69
2021/04/25 00:45:43;;;;;;;6.72;2.60;;;8.60;55.70;;;;;;5073635;28;20032;-71
2021/04/25 00:48:08;;;;;;;7.93;2.30;;;8.60;55.90;;;;;;5055123;28;20025;-70
2021/04/25 00:50:34;;;;;;;5.63;2.20;;;8.60;55.90;;;;;;5090396;28;20570;-70
2021/04/25 00:53:00;;;;;;;3.75;2.10;;;8.60;55.90;;;;;;5076156;28;20519;-70
2021/04/25 00:55:28;;;;;;;5.07;2.58;;;8.60;56.10;;;;;;5071900;28;20115;-70
2021/04/25 00:57:55;;;;;;;5.15;2.72;;;8.60;56.30;;;;;;5067955;28;20025;-70
2021/04/25 01:00:22;;;;;;;5.40;2.30;;;8.60;56.70;;;;;;5069594;28;20135;-70
2021/04/25 01:02:48;;;;;;;7.32;2.40;;;8.70;56.30;;;;;;5072628;28;20449;-70
2021/04/25 01:05:16;;;;;;;4.65;1.90;;;8.70;56.30;;;;;;5071689;28;20036;-69
2021/04/25 01:07:42;;;;;;;5.22;2.40;;;8.70;56.10;;;;;;5072803;28;20036;-70
2021/04/25 01:10:09;;;;;;;5.05;2.40;;;8.70;56.00;;;;;;5068612;28;20024;-70
2021/04/25 01:12:36;;;;;;;4.20;2.20;;;8.70;56.10;;;;;;5062671;28;20021;-70
2021/04/25 01:15:02;;;;;;;6.88;2.60;;;8.70;56.10;;;;;;5067855;28;20385;-70
2021/04/25 01:17:27;;;;;;;6.07;2.33;;;8.70;56.40;;;;;;5059509;28;20021;-70
2021/04/25 01:19:53;;;;;;;4.32;2.30;;;8.80;56.40;;;;;;5067472;28;20633;-70
2021/04/25 01:22:19;;;;;;;4.45;2.65;;;8.80;56.40;;;;;;5058543;28;20034;-70
2021/04/25 01:24:45;;;;;;;7.70;2.50;;;8.80;56.80;;;;;;5088230;28;20039;-71
2021/04/25 01:27:11;;;;;;;6.22;3.30;;;8.80;56.80;;;;;;5081582;28;20025;-70
2021/04/25 01:29:36;;;;;;;9.25;3.45;;;8.80;57.00;;;;;;5073079;28;20029;-70
2021/04/25 01:32:03;;;;;;;9.75;4.90;;;8.80;57.20;;;;;;5073841;28;20103;-70
2021/04/25 01:34:29;;;;;;;6.32;4.28;;;8.80;57.60;;;;;;5063925;28;20025;-71
2021/04/25 01:36:56;;;;;;;7.05;4.50;;;8.80;57.00;;;;;;5072805;28;20029;-70
2021/04/25 01:39:25;;;;;;;6.07;3.63;;;8.80;57.00;;;;;;5070602;28;20028;-70
2021/04/25 01:41:51;;;;;;;5.35;3.08;;;8.80;57.00;;;;;;5054678;28;20064;-70
2021/04/25 01:44:17;;;;;;;4.93;2.53;;;8.90;57.20;;;;;;5069476;28;20036;-70
2021/04/25 01:46:43;;;;;;;5.85;2.35;;;8.90;57.20;;;;;;5053501;28;20025;-70
2021/04/25 01:49:09;;;;;;;5.75;2.40;;;8.90;57.10;;;;;;5071132;28;20147;-70
2021/04/25 01:51:35;;;;;;;7.13;2.50;;;9.00;57.20;;;;;;5072370;28;20112;-70
2021/04/25 01:54:00;;;;;;;6.28;2.40;;;9.00;56.90;;;;;;5069975;28;20119;-70
2021/04/25 01:56:26;;;;;;;5.10;2.30;;;8.90;56.80;;;;;;5072143;28;20532;-70
2021/04/25 01:58:52;;;;;;;5.85;2.80;;;9.00;57.00;;;;;;5070147;28;20044;-70
2021/04/25 02:01:17;;;;;;;6.28;2.38;;;9.00;57.00;;;;;;5071875;28;20056;-71
2021/04/25 02:03:43;;;;;;;6.65;2.47;;;9.00;57.10;;;;;;5069270;28;20073;-70
2021/04/25 02:06:09;;;;;;;5.25;2.20;;;9.10;57.10;;;;;;5072097;28;20055;-70
2021/04/25 02:08:35;;;;;;;4.18;2.25;;;9.10;57.00;;;;;;5079506;28;20024;-70
2021/04/25 02:11:00;;;;;;;6.05;2.25;;;9.20;56.90;;;;;;5072007;28;20024;-70
2021/04/25 02:13:26;;;;;;;6.63;3.10;;;9.20;56.80;;;;;;5069575;28;20097;-70
2021/04/25 02:15:51;;;;;;;3.92;2.33;;;9.20;56.80;;;;;;5071508;28;20062;-71
2021/04/25 02:18:17;;;;;;;6.68;2.42;;;9.20;56.70;;;;;;5063210;28;20229;-70
2021/04/25 02:20:43;;;;;;;5.28;2.60;;;9.30;56.70;;;;;;5061992;28;20037;-70
2021/04/25 02:23:08;;;;;;;6.22;2.72;;;9.30;56.80;;;;;;5069995;28;20054;-70
2021/04/25 02:25:34;;;;;;;4.90;2.47;;;9.30;56.70;;;;;;5071227;28;20033;-70
2021/04/25 02:27:59;;;;;;;4.88;2.40;;;9.30;56.70;;;;;;5078592;28;20028;-70
2021/04/25 02:30:28;;;;;;;5.18;2.50;;;9.30;56.70;;;;;;5084498;28;20031;-70
2021/04/25 02:32:54;;;;;;;6.68;2.67;;;9.40;56.90;;;;;;5078218;28;20024;-70
2021/04/25 02:35:22;;;;;;;5.45;2.92;;;9.40;56.70;;;;;;5075809;28;20503;-70
2021/04/25 02:37:48;;;;;;;4.45;2.60;;;9.30;56.80;;;;;;5080238;28;20028;-70
2021/04/25 02:40:18;;;;;;;5.25;2.63;;;9.40;56.80;;;;;;5070679;28;20465;-70
2021/04/25 02:42:44;;;;;;;5.97;3.30;;;9.30;56.50;;;;;;5070559;28;20052;-70
2021/04/25 02:45:15;;;;;;;4.78;2.67;;;9.30;56.80;;;;;;5053194;28;20166;-70
2021/04/25 02:47:50;;;;;;;5.35;2.75;;;9.30;57.00;;;;;;5069087;28;20024;-70
2021/04/25 02:50:17;;;;;;;5.47;2.35;;;9.20;57.10;;;;;;5060383;28;20044;-70
2021/04/25 02:52:43;;;;;;;5.55;2.42;;;9.20;57.00;;;;;;5061562;28;20025;-70
2021/04/25 02:55:09;;;;;;;5.13;2.63;;;9.20;57.00;;;;;;5072395;28;20522;-70
2021/04/25 02:57:35;;;;;;;5.10;2.95;;;9.10;57.00;;;;;;5085488;28;20028;-70
2021/04/25 03:00:01;;;;;;;7.20;2.55;;;9.10;57.20;;;;;;5070754;28;20409;-70
2021/04/25 03:02:26;;;;;;;5.50;2.55;;;9.00;57.20;;;;;;5069083;28;20103;-70
2021/04/25 03:04:52;;;;;;;6.53;2.88;;;9.00;57.20;;;;;;5071532;28;20036;-70
2021/04/25 03:07:18;;;;;;;6.57;2.67;;;8.90;57.40;;;;;;5054442;28;20020;-69
2021/04/25 03:09:43;;;;;;;9.80;3.20;;;8.90;57.70;;;;;;5040156;28;20036;-70
2021/04/25 03:12:09;;;;;;;6.72;2.83;;;8.90;57.70;;;;;;5055226;28;20021;-70
2021/04/25 03:14:35;;;;;;;5.80;2.60;;;8.80;57.80;;;;;;5073406;28;20029;-69
2021/04/25 03:17:00;;;;;;;7.10;2.78;;;8.80;58.00;;;;;;5069465;28;20024;-70
2021/04/25 03:19:26;;;;;;;4.88;3.08;;;8.80;58.20;;;;;;5055393;28;20108;-70
2021/04/25 03:21:52;;;;;;;6.05;3.03;;;8.80;58.30;;;;;;5032638;28;20167;-70
2021/04/25 03:24:19;;;;;;;3.97;2.63;;;8.80;58.10;;;;;;5070300;28;20757;-70
2021/04/25 03:26:44;;;;;;;5.63;2.97;;;8.70;58.20;;;;;;5070574;28;20052;-70
2021/04/25 03:29:10;;;;;;;8.70;2.50;;;8.80;58.30;;;;;;5073191;28;20493;-70
2021/04/25 03:31:35;;;;;;;6.40;2.47;;;8.70;58.20;;;;;;5071207;28;20024;-70
2021/04/25 03:34:01;;;;;;;5.03;2.60;;;8.70;58.50;;;;;;5055196;28;20082;-69
2021/04/25 03:36:26;;;;;;;5.35;2.88;;;8.70;58.60;;;;;;5078599;28;20055;-70
2021/04/25 03:38:52;;;;;;;8.23;3.13;;;8.70;58.70;;;;;;5074890;28;20028;-70
2021/04/25 03:41:17;;;;;;;5.22;3.05;;;8.60;58.80;;;;;;5074503;28;20182;-70
2021/04/25 03:43:43;;;;;;;5.35;2.40;;;8.60;58.90;;;;;;5072225;28;20037;-70
2021/04/25 03:46:08;;;;;;;6.32;3.13;;;8.60;59.00;;;;;;5074850;28;20417;-68
2021/04/25 03:48:34;;;;;;;4.85;3.30;;;8.60;59.10;;;;;;5073111;28;20021;-69
2021/04/25 03:50:59;;;;;;;7.30;3.60;;;8.60;59.00;;;;;;5074128;28;20119;-69
2021/04/25 03:53:25;;;;;;;7.05;3.53;;;8.60;58.90;;;;;;5085413;28;20016;-69
2021/04/25 03:55:50;;;;;;;5.22;3.70;;;8.60;58.60;;;;;;5056722;28;20025;-69
2021/04/25 03:58:16;;;;;;;6.25;4.72;;;8.60;58.30;;;;;;5065779;28;20116;-71
2021/04/25 04:00:41;;;;;;;7.85;3.83;;;8.60;57.90;;;;;;5069995;28;20550;-71
2021/04/25 04:03:07;;;;;;;7.88;2.95;;;8.50;57.70;;;;;;5082590;28;20028;-71
2021/04/25 04:05:32;;;;;;;5.50;2.85;;;8.60;57.50;;;;;;5076588;28;20037;-71
2021/04/25 04:07:58;;;;;;;4.30;2.42;;;8.60;57.30;;;;;;5055014;28;20024;-71
2021/04/25 04:10:23;;;;;;;6.75;2.75;;;8.50;56.90;;;;;;5073890;28;20025;-71
2021/04/25 04:12:48;;;;;;;7.82;3.13;;;8.50;57.80;;;;;;5072496;28;20051;-71
2021/04/25 04:15:15;;;;;;;6.03;3.13;;;8.40;57.50;;;;;;5074102;28;20402;-71
2021/04/25 04:17:40;;;;;;;5.53;3.38;;;8.40;57.80;;;;;;5072178;28;20036;-71
2021/04/25 04:20:07;;;;;;;8.13;3.78;;;8.30;57.90;;;;;;5073973;28;20450;-71
2021/04/25 04:22:33;;;;;;;6.85;3.22;;;8.30;58.40;;;;;;5077478;28;20020;-70
2021/04/25 04:24:59;;;;;;;5.18;3.35;;;8.20;58.50;;;;;;5094129;28;20047;-70
2021/04/25 04:27:25;;;;;;;5.18;3.53;;;8.20;58.70;;;;;;5056134;28;20024;-71
2021/04/25 04:29:50;;;;;;;9.68;3.58;;;8.20;59.10;;;;;;5094386;28;20452;-71
2021/04/25 04:32:16;;;;;;;8.40;3.30;;;8.20;59.20;;;;;;5087577;28;20029;-71
2021/04/25 04:34:41;;;;;;;5.63;2.95;;;8.10;59.30;;;;;;5084408;28;20052;-70
2021/04/25 04:37:08;;;;;;;6.93;3.20;;;8.10;59.70;;;;;;5090644;28;20024;-70
2021/04/25 04:39:33;;;;;;;16.77;8.52;;;8.10;59.90;;;;;;5094076;28;20118;-70
2021/04/25 04:41:59;;;;;;;8.93;5.45;;;8.10;59.80;;;;;;5087159;28;20116;-71
2021/04/25 04:44:24;;;;;;;9.43;5.30;;;8.10;59.90;;;;;;5073541;28;20465;-70
2021/04/25 04:46:50;;;;;;;9.65;4.15;;;8.20;60.20;;;;;;5072013;28;20040;-73
2021/04/25 04:49:15;;;;;;;6.82;3.80;;;8.20;60.20;;;;;;5093131;28;20020;-72
2021/04/25 04:51:41;;;;;;;6.70;3.67;;;8.30;60.50;;;;;;5092949;28;20047;-75
2021/04/25 04:54:07;;;;;;;5.60;3.72;;;8.40;60.40;;;;;;5072312;28;20024;-74
2021/04/25 04:56:33;;;;;;;7.88;3.97;;;8.40;60.60;;;;;;5072349;28;20071;-74
2021/04/25 04:58:58;;;;;;;6.82;3.80;;;8.40;60.80;;;;;;5071999;28;20076;-74
2021/04/25 05:01:24;;;;;;;7.07;3.50;;;8.50;60.90;;;;;;5072434;28;20365;-74
2021/04/25 05:03:49;;;;;;;5.80;3.10;;;8.50;61.00;;;;;;5073324;28;20033;-77
2021/04/25 05:06:15;;;;;;;6.88;3.80;;;8.50;60.80;;;;;;5079687;28;20055;-74
2021/04/25 05:08:40;;;;;;;5.40;3.03;;;8.60;60.80;;;;;;5082049;28;20020;-75
2021/04/25 05:11:06;;;;;;;5.85;3.63;;;8.60;60.40;;;;;;5073230;28;20064;-76
2021/04/25 05:13:32;;;;;;;6.95;3.95;;;8.60;60.40;;;;;;5072666;28;20048;-74
2021/04/25 05:15:57;;;;;;;6.00;3.70;;;8.60;60.80;;;;;;5073133;28;20024;-72
2021/04/25 05:18:23;;;;;;;7.32;3.53;;;8.60;60.10;;;;;;5084108;28;20047;-75
2021/04/25 05:20:48;;;;;;;5.53;3.47;;;8.60;60.00;;;;;;5081841;28;20099;-73
2021/04/25 05:23:14;;;;;;;6.47;3.30;;;8.60;59.90;;;;;;5070778;28;20115;-73
2021/04/25 05:25:39;;;;;;;9.60;3.55;;;8.60;60.20;;;;;;5070104;28;20048;-74
2021/04/25 05:28:05;;;;;;;8.27;3.35;;;8.60;60.20;;;;;;5071534;28;20039;-72
2021/04/25 05:30:30;;;;;;;12.77;3.67;;;8.70;59.90;;;;;;5061468;28;20036;-73
2021/04/25 05:32:56;;;;;;;5.95;3.60;;;8.70;59.70;;;;;;5068754;28;20443;-73
2021/04/25 05:35:21;;;;;;;6.45;3.78;;;8.70;59.60;;;;;;5073290;28;20037;-73
2021/04/25 05:37:47;;;;;;;6.78;3.78;;;8.80;59.70;;;;;;5067896;28;20024;-72
2021/04/25 05:40:13;;;;;;;9.35;3.67;;;8.80;59.70;;;;;;5084275;28;20036;-72
2021/04/25 05:42:39;;;;;;;5.90;3.88;;;8.80;59.80;;;;;;5070413;28;20035;-72
2021/04/25 05:45:06;;;;;;;6.18;3.17;;;8.80;59.60;;;;;;5084084;28;20229;-72
2021/04/25 05:47:32;;;;;;;8.15;2.72;;;8.80;59.70;;;;;;5052309;28;20384;-72
2021/04/25 05:49:57;;;;;;;9.48;4.00;;;8.90;59.70;;;;;;5071964;28;20024;-72
2021/04/25 05:52:23;;;;;;;7.07;3.83;;;8.90;59.70;;;;;;5067610;28;20091;-71
2021/04/25 05:54:48;;;;;;;5.97;3.10;;;8.90;59.50;;;;;;5070006;28;20032;-72
2021/04/25 05:57:14;;;;;;;5.90;3.38;;;9.00;59.50;;;;;;5089291;28;20510;-71
2021/04/25 05:59:39;;;;;;;9.00;3.80;;;9.10;59.70;;;;;;5092199;28;20044;-72
2021/04/25 06:02:06;;;;;;;9.27;3.88;;;9.20;59.40;;;;;;5085797;28;20078;-72
2021/04/25 06:04:32;;;;;;;5.25;2.75;;;9.20;59.70;;;;;;5092384;28;20086;-72
2021/04/25 06:06:57;;;;;;;6.78;2.70;;;9.30;59.00;;;;;;5064662;28;20025;-72
2021/04/25 06:09:23;;;;;;;5.88;2.95;;;9.30;58.60;;;;;;5074476;28;20033;-72
2021/04/25 06:11:48;;;;;;;5.78;3.40;;;9.30;58.00;;;;;;5070178;28;20054;-73
2021/04/25 06:14:14;;;;;;;5.68;2.60;;;9.30;57.60;;;;;;5074908;28;20115;-72
2021/04/25 06:16:40;;;;;;;10.07;2.40;;;9.30;57.00;;;;;;5053779;28;20074;-72
2021/04/25 06:19:06;;;;;;;7.45;2.97;;;9.30;57.10;;;;;;5070211;28;20024;-72
2021/04/25 06:21:31;;;;;;;8.32;3.00;;;9.30;57.00;;;;;;5070917;28;20062;-72
2021/04/25 06:23:57;;;;;;;6.10;2.55;;;9.40;56.70;;;;;;5087016;28;20027;-71
2021/04/25 06:26:23;;;;;;;5.93;2.50;;;9.50;56.90;;;;;;5078193;28;20361;-68
2021/04/25 06:28:48;;;;;;;7.13;2.58;;;9.60;56.70;;;;;;5069185;28;20028;-70
2021/04/25 06:31:14;;;;;;;8.20;2.60;;;9.80;56.20;;;;;;5074010;28;20036;-73
2021/04/25 06:33:39;;;;;;;4.28;2.42;;;9.90;56.20;;;;;;5071528;28;20073;-69
2021/04/25 06:36:06;;;;;;;8.05;2.28;;;9.90;54.90;;;;;;5080680;28;20028;-70
2021/04/25 06:38:31;;;;;;;4.68;2.60;;;10.00;55.00;;;;;;5065785;28;20094;-71
2021/04/25 06:40:57;;;;;;;5.05;2.53;;;10.00;54.70;;;;;;5071248;28;20488;-71
2021/04/25 06:43:22;;;;;;;6.00;2.35;;;10.10;54.80;;;;;;5065227;28;20031;-70
2021/04/25 06:45:47;;;;;;;4.70;2.25;;;10.20;54.20;;;;;;5080742;28;20394;-71
2021/04/25 06:48:14;;;;;;;8.48;2.80;;;10.30;53.90;;;;;;5070618;28;20358;-70
2021/04/25 06:50:40;;;;;;;4.65;2.35;;;10.30;53.70;;;;;;5071263;28;20033;-70
2021/04/25 06:53:06;;;;;;;6.32;2.80;;;10.40;52.90;;;;;;5078422;28;20021;-69
2021/04/25 06:55:31;;;;;;;4.68;2.58;;;10.40;53.10;;;;;;5070711;28;20385;-70
2021/04/25 06:57:57;;;;;;;5.38;2.72;;;10.50;53.20;;;;;;5070290;28;20078;-69
2021/04/25 07:00:24;;;;;;;4.85;2.30;;;10.60;53.30;;;;;;5071473;28;20144;-70
2021/04/25 07:02:55;;;;;;;5.43;2.95;;;10.60;52.70;;;;;;5081320;28;20028;-70
2021/04/25 07:05:21;;;;;;;4.38;2.22;;;10.60;52.60;;;;;;5070164;28;20086;-70
2021/04/25 07:07:47;;;;;;;10.18;5.88;;;10.70;52.00;;;;;;5083575;28;20043;-70
2021/04/25 07:10:12;;;;;;;10.90;3.60;;;10.60;51.90;;;;;;5098355;28;20468;-70
2021/04/25 07:12:38;;;;;;;5.63;2.47;;;10.70;52.20;;;;;;5078872;28;20099;-70
2021/04/25 07:15:05;;;;;;;5.53;2.40;;;10.80;52.10;;;;;;5077032;28;20028;-70
2021/04/25 07:17:31;;;;;;;4.60;2.00;;;10.80;52.10;;;;;;5059386;28;20541;-70
2021/04/25 07:19:57;;;;;;;5.40;2.30;;;10.90;52.30;;;;;;5067030;28;20031;-71
2021/04/25 07:22:22;;;;;;;5.43;2.58;;;10.90;52.10;;;;;;5070654;28;20040;-71
2021/04/25 07:24:49;;;;;;;4.95;2.05;;;11.00;51.80;;;;;;5095755;28;20036;-71
2021/04/25 07:27:16;;;;;;;4.80;2.58;;;11.00;51.00;;;;;;5077836;28;20025;-69
2021/04/25 07:29:41;;;;;;;4.10;2.20;;;11.00;50.50;;;;;;5062779;28;20032;-70
2021/04/25 07:32:07;;;;;;;5.38;2.55;;;11.00;50.90;;;;;;5081761;28;20020;-70
2021/04/25 07:34:33;;;;;;;4.85;2.17;;;11.00;50.80;;;;;;5077713;28;20028;-70
2021/04/25 07:36:59;;;;;;;4.50;2.17;;;11.00;49.60;;;;;;5076093;28;20025;-70
2021/04/25 07:39:24;;;;;;;3.58;1.77;;;11.00;49.60;;;;;;5077091;28;20487;-70
2021/04/25 07:41:50;;;;;;;8.35;2.70;;;11.10;49.80;;;;;;5076316;28;20428;-70
2021/04/25 07:44:17;;;;;;;4.47;2.15;;;11.10;49.70;;;;;;5097010;28;20506;-70
2021/04/25 07:46:42;;;;;;;3.65;2.00;;;11.20;49.50;;;;;;5081940;28;20054;-69
2021/04/25 07:49:08;;;;;;;4.05;2.15;;;11.30;49.60;;;;;;5095775;28;20476;-70
2021/04/25 07:51:33;;;;;;;5.18;2.10;;;11.40;49.20;;;;;;5082758;28;20032;-70
2021/04/25 07:53:59;;;;;;;5.80;2.38;;;11.30;48.50;;;;;;5071511;28;20035;-70
2021/04/25 07:56:26;;;;;;;4.80;2.13;;;11.30;48.30;;;;;;5059727;28;20028;-70
2021/04/25 07:58:51;;;;;;;5.05;2.35;;;11.20;47.50;;;;;;5073443;28;20071;-70
2021/04/25 08:01:18;;;;;;;5.03;1.80;;;11.20;47.60;;;;;;5058764;28;20029;-70
2021/04/25 08:03:43;;;;;;;4.50;2.08;;;11.20;46.80;;;;;;5057475;28;20124;-70
2021/04/25 08:06:09;;;;;;;3.88;2.47;;;11.20;46.70;;;;;;5059146;28;20477;-70
2021/04/25 08:08:34;;;;;;;5.25;2.15;;;11.10;46.50;;;;;;5061807;28;20069;-70
2021/04/25 08:11:00;;;;;;;5.05;2.47;;;11.10;46.20;;;;;;5077372;28;20143;-71
2021/04/25 08:13:26;;;;;;;5.00;2.78;;;11.00;46.50;;;;;;5075535;28;20028;-70
2021/04/25 08:15:51;;;;;;;4.95;2.00;;;10.90;46.80;;;;;;5077485;28;20024;-69
2021/04/25 08:18:17;;;;;;;6.10;2.35;;;10.90;46.80;;;;;;5070763;28;20448;-71
2021/04/25 08:20:42;;;;;;;4.00;1.90;;;11.00;46.90;;;;;;5060137;28;20029;-71
2021/04/25 08:23:08;;;;;;;5.00;1.80;;;11.00;46.80;;;;;;5072009;28;20048;-71
2021/04/25 08:25:33;;;;;;;4.10;2.97;;;10.90;45.20;;;;;;5073094;28;20072;-71
2021/04/25 08:28:00;;;;;;;3.55;1.40;;;10.80;45.80;;;;;;5046690;28;20017;-68
2021/04/25 08:30:26;;;;;;;4.22;1.83;;;10.70;45.20;;;;;;5054259;28;20087;-69
2021/04/25 08:32:52;;;;;;;5.07;1.98;;;10.60;45.50;;;;;;5076996;28;20020;-70
2021/04/25 08:35:19;;;;;;;3.30;1.88;;;10.50;46.00;;;;;;5068906;28;20516;-70
2021/04/25 08:37:46;;;;;;;3.50;1.80;;;10.40;46.90;;;;;;5065238;28;20024;-70
2021/04/25 08:40:12;;;;;;;3.00;1.85;;;10.30;48.10;;;;;;5071221;28;20044;-70
2021/04/25 08:42:37;;;;;;;4.10;2.13;;;10.30;48.60;;;;;;5077412;28;20012;-70
2021/04/25 08:45:04;;;;;;;6.05;2.20;;;10.10;50.10;;;;;;5093700;28;20044;-70
2021/04/25 08:47:30;;;;;;;2.78;1.77;;;10.00;50.80;;;;;;5086240;28;20048;-69
2021/04/25 08:50:00;;;;;;;4.47;1.90;;;9.90;52.10;;;;;;5073761;28;20443;-66
2021/04/25 08:52:26;;;;;;;3.50;1.88;;;9.70;53.10;;;;;;5076152;28;20017;-66
2021/04/25 08:54:52;;;;;;;4.65;2.40;;;9.60;54.00;;;;;;5089852;28;20070;-66
2021/04/25 08:57:17;;;;;;;3.38;1.98;;;9.40;55.80;;;;;;5090906;28;20024;-65
2021/04/25 08:59:43;;;;;;;5.10;2.30;;;9.30;57.50;;;;;;5088621;28;20028;-67
2021/04/25 09:02:09;;;;;;;3.42;1.90;;;9.30;57.90;;;;;;5073774;28;20036;-66
2021/04/25 09:04:34;;;;;;;3.83;1.88;;;9.30;57.30;;;;;;5081101;28;20028;-68
2021/04/25 09:07:03;;;;;;;4.22;2.00;;;9.40;57.50;;;;;;5072178;28;20104;-67
2021/04/25 09:09:49;;;;;;;3.25;1.92;;;9.50;57.20;;;;;;5069325;28;20130;-67
2021/04/25 09:12:34;;;;;;;5.70;1.90;;;9.60;57.20;;;;;;5062699;28;20032;-71
2021/04/25 09:15:01;;;;;;;4.20;1.70;;;9.60;57.50;;;;;;5059225;28;20024;-70
2021/04/25 09:17:27;;;;;;;5.03;1.80;;;9.50;57.20;;;;;;5071882;28;20035;-70
2021/04/25 09:19:55;;;;;;;3.75;1.73;;;9.50;57.60;;;;;;5071915;28;20020;-70
2021/04/25 09:22:23;;;;;;;5.47;1.95;;;9.50;58.00;;;;;;5056499;28;20064;-70
2021/04/25 09:24:49;;;;;;;4.03;2.13;;;9.60;58.60;;;;;;5049457;28;20040;-70
2021/04/25 09:27:25;;;;;;;5.88;2.13;;;9.60;58.70;;;;;;5065840;28;20020;-72
2021/04/25 09:29:58;;;;;;;3.85;1.98;;;9.70;58.60;;;;;;5079752;28;20124;-71
2021/04/25 09:32:30;;;;;;;6.00;2.38;;;9.80;58.40;;;;;;5061365;28;20020;-71
2021/04/25 09:35:19;;;;;;;4.80;2.03;;;9.70;58.60;;;;;;5043027;28;20044;-71
2021/04/25 09:37:49;;;;;;;2.78;1.73;;;9.70;59.00;;;;;;5059058;28;20103;-70
2021/04/25 09:40:17;;;;;;;4.65;1.80;;;9.50;58.50;;;;;;5072313;28;20052;-69
2021/04/25 09:43:16;;;;;;;3.42;1.65;;;9.50;58.10;;;;;;5069774;28;20465;-69
2021/04/25 09:45:54;;;;;;;3.78;1.95;;;9.40;58.20;;;;;;5048439;28;20100;-69
2021/04/25 09:48:32;;;;;;;2.63;1.67;;;9.40;58.10;;;;;;5070785;28;20044;-69
2021/04/25 09:51:06;;;;;;;5.10;1.73;;;9.40;57.70;;;;;;5062700;28;20042;-70
2021/04/25 09:53:32;;;;;;;4.03;1.60;;;9.50;57.80;;;;;;5078348;28;20083;-70
2021/04/25 09:55:58;;;;;;;3.78;1.92;;;9.60;57.90;;;;;;5072158;28;20385;-70
2021/04/25 09:58:26;;;;;;;4.68;2.00;;;9.80;57.80;;;;;;5070048;28;20032;-70
2021/04/25 10:00:52;;;;;;;4.93;2.45;;;10.00;57.40;;;;;;5068108;28;20361;-69
2021/04/25 10:03:22;;;;;;;6.03;1.95;;;10.20;57.10;;;;;;5075457;28;20024;-69
2021/04/25 10:06:05;;;;;;;3.67;2.03;;;10.40;56.90;;;;;;5072171;28;20504;-70
2021/04/25 10:08:37;;;;;;;4.78;2.03;;;10.60;56.00;;;;;;5071158;28;20031;-70
2021/04/25 10:11:04;;;;;;;3.80;1.80;;;10.70;55.90;;;;;;5070911;28;20037;-70
2021/04/25 10:13:32;;;;;;;5.72;2.08;;;10.70;54.00;;;;;;5073574;28;20435;-70
2021/04/25 10:15:58;;;;;;;4.43;2.00;;;10.90;54.00;;;;;;5072043;28;20024;-70
2021/04/25 10:18:24;;;;;;;6.78;2.22;;;11.10;53.50;;;;;;5070121;28;20032;-70
2021/04/25 10:20:51;;;;;;;4.15;2.20;;;11.20;52.40;;;;;;5058837;28;20056;-71
2021/04/25 10:23:18;;;;;;;4.25;2.20;;;11.30;52.10;;;;;;5073716;28;20042;-70
2021/04/25 10:25:44;;;;;;;3.25;1.80;;;11.40;51.70;;;;;;5053528;28;20036;-70
2021/04/25 10:28:18;;;;;;;4.07;1.90;;;11.50;51.40;;;;;;5070427;28;20028;-69
2021/04/25 10:30:44;;;;;;;5.60;1.80;;;11.60;49.70;;;;;;5071776;28;20078;-70
2021/04/25 10:33:10;;;;;;;3.28;1.75;;;11.50;49.60;;;;;;5070527;28;20028;-70
2021/04/25 10:35:36;;;;;;;6.90;2.20;;;11.50;48.70;;;;;;5071315;28;20150;-69
2021/04/25 10:38:06;;;;;;;3.75;1.80;;;11.60;49.30;;;;;;5072437;28;20040;-69
2021/04/25 10:40:33;;;;;;;5.03;1.88;;;11.60;49.00;;;;;;5091590;28;20384;-69
2021/04/25 10:43:07;;;;;;;6.65;2.83;;;11.60;48.60;;;;;;5084692;28;20036;-70
2021/04/25 10:45:53;;;;;;;3.70;1.58;;;11.60;49.00;;;;;;5091886;28;20039;-70
2021/04/25 10:48:25;;;;;;;2.40;1.30;;;11.70;47.50;;;;;;5062493;28;20398;-70
2021/04/25 10:50:54;;;;;;;2.58;1.50;;;11.60;46.80;;;;;;5080549;28;20036;-70
2021/04/25 10:53:26;;;;;;;3.08;1.63;;;11.70;46.70;;;;;;5079206;28;20354;-70
2021/04/25 10:56:12;;;;;;;3.88;1.58;;;11.70;46.60;;;;;;5071921;28;20032;-70
2021/04/25 10:58:38;;;;;;;2.65;1.42;;;11.80;46.50;;;;;;5073202;28;20393;-69
2021/04/25 11:01:03;;;;;;;3.22;1.50;;;11.80;46.60;;;;;;5071361;28;20032;-71
2021/04/25 11:03:32;;;;;;;3.50;1.67;;;11.80;46.10;;;;;;5071328;28;20122;-69
2021/04/25 11:05:57;;;;;;;4.15;1.75;;;11.80;45.30;;;;;;5069781;28;20036;-69
2021/04/25 11:08:29;;;;;;;3.05;1.63;;;11.70;46.00;;;;;;5062333;28;20450;-70
2021/04/25 11:11:02;;;;;;;3.03;1.58;;;11.70;46.00;;;;;;5060566;28;20618;-70
2021/04/25 11:13:33;;;;;;;2.55;1.80;;;11.80;46.00;;;;;;5068240;28;20487;-70
2021/04/25 11:16:05;;;;;;;2.08;1.20;;;11.90;45.80;;;;;;5052682;28;20029;-70
2021/04/25 11:18:43;;;;;;;3.33;1.67;;;11.90;45.60;;;;;;5064085;28;20542;-70
2021/04/25 11:21:41;;;;;;;4.10;1.52;;;12.00;45.50;;;;;;5070545;28;20039;-70
2021/04/25 11:24:06;;;;;;;3.88;1.60;;;12.00;45.20;;;;;;5056751;28;20401;-70
2021/04/25 11:26:38;;;;;;;3.60;1.75;;;12.00;45.10;;;;;;5070352;28;20033;-70
2021/04/25 11:29:04;;;;;;;2.92;1.73;;;12.20;45.20;;;;;;5074800;28;20040;-70
2021/04/25 11:31:45;;;;;;;4.68;1.50;;;12.20;44.10;;;;;;5070360;28;20024;-70
2021/04/25 11:34:26;;;;;;;3.85;1.50;;;12.30;45.10;;;;;;5077167;28;20067;-70
2021/04/25 11:36:57;;;;;;;2.83;1.45;;;12.50;44.60;;;;;;5032652;28;20033;-71
2021/04/25 11:39:31;;;;;;;5.68;1.67;;;12.70;44.70;;;;;;5067883;28;20389;-70
2021/04/25 11:41:58;;;;;;;2.38;1.52;;;12.80;44.20;;;;;;5067057;28;20024;-66
2021/04/25 11:44:32;;;;;;;2.80;1.77;;;12.90;44.10;;;;;;5068345;28;20032;-70
2021/04/25 11:47:05;;;;;;;4.13;1.55;;;12.90;44.00;;;;;;5074885;28;20485;-70
2021/04/25 11:49:32;;;;;;;4.35;1.48;;;13.00;43.60;;;;;;5069898;28;20052;-70
2021/04/25 11:52:17;;;;;;;2.10;1.30;;;13.10;43.60;;;;;;5068197;28;20063;-70
2021/04/25 11:54:45;;;;;;;2.60;1.50;;;13.20;41.50;;;;;;5063588;28;20039;-70
2021/04/25 11:57:12;;;;;;;3.70;2.08;;;13.10;40.90;;;;;;5072967;28;20057;-70
2021/04/25 11:59:52;;;;;;;2.55;1.42;;;13.10;40.80;;;;;;5064492;28;21355;-70
2021/04/25 12:02:18;;;;;;;3.17;1.27;;;13.20;41.00;;;;;;5071080;28;20020;-69
2021/04/25 12:04:51;;;;;;;1.98;1.20;;;13.10;40.10;;;;;;5070786;28;20079;-68
2021/04/25 12:07:42;;;;;;;2.88;1.45;;;13.10;40.30;;;;;;5069879;28;20492;-70
2021/04/25 12:10:31;;;;;;;3.00;1.40;;;13.20;40.40;;;;;;5073125;28;20049;-72
2021/04/25 12:13:08;;;;;;;6.07;1.20;;;13.20;38.70;;;;;;5075800;28;20107;-73
2021/04/25 12:15:55;;;;;;;3.05;1.33;;;13.20;39.50;;;;;;5083961;28;20032;-70
2021/04/25 12:18:28;;;;;;;1.67;0.98;;;13.30;37.60;;;;;;5082329;28;20131;-70
2021/04/25 12:21:05;;;;;;;3.00;1.27;;;13.20;36.90;;;;;;5081635;28;20029;-69
2021/04/25 12:23:33;;;;;;;3.05;1.55;;;13.10;37.40;;;;;;5072247;28;20396;-69
2021/04/25 12:26:07;;;;;;;3.20;0.90;;;13.00;37.30;;;;;;5071462;28;20051;-69
2021/04/25 12:28:38;;;;;;;2.17;1.38;;;12.90;37.00;;;;;;5065295;28;20032;-69
2021/04/25 12:31:05;;;;;;;2.92;1.55;;;12.80;36.90;;;;;;5072958;28;20081;-68
2021/04/25 12:33:39;;;;;;;2.78;1.00;;;12.70;37.10;;;;;;5070567;28;20029;-68
2021/04/25 12:36:06;;;;;;;3.40;1.20;;;12.70;36.40;;;;;;5071560;28;20028;-68
2021/04/25 12:38:33;;;;;;;3.65;1.10;;;12.70;37.30;;;;;;5080365;28;20040;-69
2021/04/25 12:41:06;;;;;;;2.25;1.40;;;12.60;36.40;;;;;;5050422;28;20119;-69
2021/04/25 12:43:38;;;;;;;5.40;1.10;;;12.60;36.30;;;;;;5063274;28;20032;-69
2021/04/25 12:46:13;;;;;;;1.67;0.88;;;12.60;36.10;;;;;;5060967;28;20044;-68
2021/04/25 12:48:58;;;;;;;2.10;1.10;;;12.70;36.60;;;;;;5071606;28;20025;-69
2021/04/25 12:51:32;;;;;;;2.92;0.80;;;12.70;35.50;;;;;;5072525;28;20129;-69
2021/04/25 12:53:57;;;;;;;3.42;1.20;;;12.70;35.50;;;;;;5056825;28;20032;-69
2021/04/25 12:56:30;;;;;;;1.90;1.00;;;12.80;35.60;;;;;;5062549;28;20495;-69